Terminal Aerodrome Forecast
Issued by NWS

Home | Current Version | Previous Version | Graphics & Text | Print | Product List | Glossary On
Versions: 1 2 3 4 5 6 7 8 9 10 11 12 13 14 15 16
000
FTUS45 KGGW 302300
TAFSDY
TAF
KSDY 302320Z 3100/3124 12011KT P6SM VCSH SCT040 BKN070
     FM310600 13013KT P6SM -SHRA BKN060
     FM311200 12010KT P6SM BKN070
      AMD LTD TO CLD VIS AND WIND=

USA.gov is the U.S. government's official web portal to all federal, state and local government web resources and services.